Time;durP1;ratioP1;P1;durP2;ratioP2;P2;SDS_P1;SDS_P2;PMS_P1;PMS_P2;Temp;Humidity;BMP_temperature;BMP_pressure;BME280_temperature;BME280_humidity;BME280_pressure;Samples;Min_cycle;Max_cycle;Signal;HPM_P1;HPM_P2
2024/04/13 00:01:45;;;;;;;10.00;8.50;;;;;;;13.94;83.34;102215.44;6649667;21;20268;-85
2024/04/13 00:04:13;;;;;;;13.27;8.65;;;;;;;13.88;82.89;102206.13;6650204;21;20003;-85
2024/04/13 00:06:39;;;;;;;10.98;8.23;;;;;;;13.70;84.06;102214.63;6640935;21;20011;-80
2024/04/13 00:09:07;;;;;;;15.10;8.85;;;;;;;13.55;84.79;102211.31;6640638;21;19999;-84
2024/04/13 00:11:33;;;;;;;10.02;8.55;;;;;;;13.55;84.26;102220.13;6640114;21;20121;-83
2024/04/13 00:14:01;;;;;;;11.15;8.27;;;;;;;13.43;85.45;102213.06;6641568;21;20084;-84
2024/04/13 00:16:30;;;;;;;14.40;9.30;;;;;;;13.35;85.36;102202.16;6639695;21;19996;-82
2024/04/13 00:18:58;;;;;;;11.38;8.88;;;;;;;13.32;85.61;102202.38;6639995;21;19991;-84
2024/04/13 00:21:24;;;;;;;11.05;9.02;;;;;;;13.23;86.32;102195.09;6639794;21;19992;-85
2024/04/13 00:23:52;;;;;;;12.23;9.23;;;;;;;13.26;86.49;102197.50;6639943;21;20014;-84
2024/04/13 00:26:18;;;;;;;12.68;8.70;;;;;;;13.24;86.58;102191.47;6640282;21;20327;-84
2024/04/13 00:28:48;;;;;;;12.48;9.18;;;;;;;13.23;86.36;102195.09;6639917;21;20014;-82
2024/04/13 00:31:13;;;;;;;15.20;9.57;;;;;;;13.19;86.89;102188.25;6638693;21;20455;-82
2024/04/13 00:33:44;;;;;;;12.80;9.38;;;;;;;13.14;87.16;102192.09;6639081;21;20013;-85
2024/04/13 00:36:10;;;;;;;12.07;9.43;;;;;;;13.11;87.67;102194.13;6643090;21;20004;-84
2024/04/13 00:38:38;;;;;;;14.95;9.90;;;;;;;13.12;87.91;102186.03;6639989;21;19996;-82
2024/04/13 00:41:05;;;;;;;13.02;9.82;;;;;;;13.09;87.79;102180.97;6642000;21;20000;-84
2024/04/13 00:43:33;;;;;;;14.88;10.02;;;;;;;13.05;88.05;102178.63;6640298;21;20087;-85
2024/04/13 00:46:07;;;;;;;15.68;9.90;;;;;;;13.07;88.05;102172.22;6639203;21;20007;-85
2024/04/13 00:48:37;;;;;;;12.45;9.10;;;;;;;13.05;88.27;102174.16;6639255;21;20144;-84
2024/04/13 00:51:06;;;;;;;11.35;8.85;;;;;;;13.11;87.99;102173.72;6639949;21;19996;-84
2024/04/13 00:53:37;;;;;;;14.45;9.52;;;;;;;13.10;87.77;102165.84;6639879;21;19996;-83
2024/04/13 00:56:06;;;;;;;16.92;9.63;;;;;;;13.11;87.95;102167.56;6640130;21;20026;-82
2024/04/13 00:58:35;;;;;;;14.02;9.68;;;;;;;13.15;87.32;102177.00;6638868;21;20007;-81
2024/04/13 01:01:02;;;;;;;16.23;10.02;;;;;;;13.13;87.58;102169.16;6639373;21;19996;-83
2024/04/13 01:03:35;;;;;;;13.40;8.88;;;;;;;13.10;88.46;102171.16;6638398;21;20007;-85
2024/04/13 01:06:02;;;;;;;12.05;9.25;;;;;;;13.18;87.80;102166.16;6587261;21;20019;-84
2024/04/13 01:08:34;;;;;;;11.50;8.82;;;;;;;13.18;87.77;102162.66;6586336;21;19997;-84
2024/04/13 01:11:00;;;;;;;13.50;9.50;;;;;;;13.19;87.75;102167.84;6586195;21;20055;-83
2024/04/13 01:13:29;;;;;;;13.63;9.23;;;;;;;13.19;87.95;102164.34;6586679;21;19992;-85
2024/04/13 01:15:55;;;;;;;13.25;8.85;;;;;;;13.22;87.69;102157.03;6585043;21;20005;-83
2024/04/13 01:18:23;;;;;;;11.40;8.27;;;;;;;13.21;87.69;102167.72;6584771;21;20074;-85
2024/04/13 01:20:49;;;;;;;10.05;8.75;;;;;;;13.21;88.27;102159.75;6586025;21;20020;-85
2024/04/13 01:23:18;;;;;;;13.25;9.15;;;;;;;13.21;87.97;102157.06;6587849;21;20074;-84
2024/04/13 01:25:47;;;;;;;13.50;9.40;;;;;;;13.22;87.74;102161.47;6588124;21;19996;-84
2024/04/13 01:28:17;;;;;;;11.77;9.07;;;;;;;13.20;87.74;102160.72;6585613;21;20615;-82
2024/04/13 01:30:43;;;;;;;13.38;9.23;;;;;;;13.23;87.54;102160.53;6586384;21;19996;-83
2024/04/13 01:33:12;;;;;;;12.27;9.23;;;;;;;13.26;87.57;102160.28;6586566;21;20009;-81
2024/04/13 01:35:38;;;;;;;10.57;8.48;;;;;;;13.22;88.02;102158.81;6585296;21;19996;-83
2024/04/13 01:38:07;;;;;;;12.05;8.98;;;;;;;13.27;87.93;102162.00;6585572;21;20312;-82
2024/04/13 01:40:32;;;;;;;12.32;8.95;;;;;;;13.23;88.22;102168.50;6585783;21;19993;-83
2024/04/13 01:43:05;;;;;;;11.65;9.23;;;;;;;13.17;88.05;102161.81;6585969;21;20010;-82
2024/04/13 01:45:31;;;;;;;13.90;9.30;;;;;;;13.25;87.64;102162.09;6588369;21;20420;-82
2024/04/13 01:47:59;;;;;;;16.88;9.23;;;;;;;13.29;87.15;102158.25;6589053;21;19992;-86
2024/04/13 01:50:25;;;;;;;16.67;9.07;;;;;;;13.26;87.55;102161.16;6588878;21;20296;-85
2024/04/13 01:52:53;;;;;;;14.07;9.25;;;;;;;13.22;87.53;102157.03;6589480;21;20077;-86
2024/04/13 01:55:19;;;;;;;14.20;9.43;;;;;;;13.22;87.65;102166.78;6591881;21;20007;-80
2024/04/13 01:57:48;;;;;;;12.93;9.30;;;;;;;13.30;87.37;102161.75;6594451;21;19997;-84
2024/04/13 02:00:16;;;;;;;13.27;9.30;;;;;;;13.22;87.33;102161.47;6596982;21;20000;-85
2024/04/13 02:02:44;;;;;;;13.77;9.50;;;;;;;13.18;87.36;102158.16;6595101;21;20000;-86
2024/04/13 02:05:10;;;;;;;10.60;8.50;;;;;;;13.08;87.90;102165.09;6598052;21;19993;-84
2024/04/13 02:07:38;;;;;;;21.60;10.73;;;;;;;13.11;87.36;102160.41;6595775;21;20386;-84
2024/04/13 02:10:06;;;;;;;12.77;9.48;;;;;;;13.04;88.07;102155.69;6590871;21;20033;-83
2024/04/13 02:12:34;;;;;;;15.73;9.45;;;;;;;13.01;87.96;102155.91;6590572;21;20028;-85
2024/04/13 02:15:00;;;;;;;15.90;10.75;;;;;;;12.93;88.78;102147.63;6591957;21;19992;-79
2024/04/13 02:17:31;;;;;;;16.98;9.65;;;;;;;12.93;88.62;102148.47;6591523;21;20458;-81
2024/04/13 02:19:57;;;;;;;14.18;9.88;;;;;;;12.92;88.82;102146.78;6592604;21;19997;-81
2024/04/13 02:22:27;;;;;;;12.65;9.43;;;;;;;12.97;88.01;102144.63;6590367;21;20011;-83
2024/04/13 02:24:52;;;;;;;15.00;10.07;;;;;;;12.91;88.26;102134.47;6592351;21;19997;-82
2024/04/13 02:27:21;;;;;;;13.13;10.35;;;;;;;12.83;88.90;102128.88;6592286;21;20012;-82
2024/04/13 02:29:47;;;;;;;12.73;10.30;;;;;;;12.82;88.88;102127.19;6590212;21;19992;-82
2024/04/13 02:32:16;;;;;;;14.05;9.93;;;;;;;12.74;88.79;102121.56;6588557;21;20346;-81
2024/04/13 02:34:44;;;;;;;12.65;10.18;;;;;;;12.70;89.14;102120.94;6588931;21;20004;-82
2024/04/13 02:37:12;;;;;;;15.55;10.55;;;;;;;12.68;88.86;102112.25;6589260;21;20015;-82
2024/04/13 02:39:39;;;;;;;16.00;11.18;;;;;;;12.63;89.08;102124.97;6588766;21;20000;-83
2024/04/13 02:42:07;;;;;;;15.35;10.63;;;;;;;12.57;89.48;102122.78;6590034;21;20011;-81
2024/04/13 02:44:35;;;;;;;16.58;11.18;;;;;;;12.51;89.57;102121.41;6589017;21;20000;-82
2024/04/13 02:47:03;;;;;;;14.15;10.50;;;;;;;12.46;89.74;102123.56;6589872;21;20001;-83
2024/04/13 02:49:29;;;;;;;17.63;10.68;;;;;;;12.43;89.93;102128.25;6589305;21;20000;-82
2024/04/13 02:52:00;;;;;;;13.13;10.55;;;;;;;12.41;89.83;102128.31;6589396;21;19995;-81
2024/04/13 02:54:25;;;;;;;15.13;10.70;;;;;;;12.41;89.89;102125.66;6587481;21;19996;-81
2024/04/13 02:56:54;;;;;;;15.68;10.85;;;;;;;12.41;90.20;102117.69;6588145;21;20019;-79
2024/04/13 02:59:20;;;;;;;14.35;10.65;;;;;;;12.43;89.81;102113.16;6589448;21;20004;-80
2024/04/13 03:01:48;;;;;;;12.50;10.40;;;;;;;12.39;90.11;102116.97;6589145;21;20000;-81
2024/04/13 03:04:14;;;;;;;18.70;11.45;;;;;;;12.37;90.29;102118.91;6593696;21;19992;-81
2024/04/13 03:06:42;;;;;;;17.30;11.25;;;;;;;12.37;90.20;102119.75;6597382;21;19996;-83
2024/04/13 03:09:11;;;;;;;14.50;10.70;;;;;;;12.37;90.33;102118.91;6595236;21;20000;-81
2024/04/13 03:11:39;;;;;;;16.75;10.70;;;;;;;12.38;90.44;102112.63;6587612;21;20007;-81
2024/04/13 03:14:05;;;;;;;14.70;10.30;;;;;;;12.40;90.84;102113.38;6587207;21;19989;-83
2024/04/13 03:16:33;;;;;;;14.95;10.60;;;;;;;12.41;90.23;102104.44;6584042;21;20010;-82
2024/04/13 03:18:59;;;;;;;17.77;10.70;;;;;;;12.48;90.03;102110.16;6585897;21;20024;-81
2024/04/13 03:21:29;;;;;;;13.95;10.38;;;;;;;12.41;90.32;102117.69;6585548;21;20004;-82
2024/04/13 03:23:55;;;;;;;12.35;10.27;;;;;;;12.43;90.76;102112.31;6584326;21;20007;-83
2024/04/13 03:26:26;;;;;;;13.07;10.90;;;;;;;12.46;90.21;102098.81;6585156;21;20004;-82
2024/04/13 03:28:52;;;;;;;16.02;10.30;;;;;;;12.52;90.00;102103.69;6585364;21;20024;-81
2024/04/13 03:31:22;;;;;;;15.40;10.50;;;;;;;12.53;89.54;102102.72;6585597;21;20004;-82
2024/04/13 03:33:48;;;;;;;13.30;9.90;;;;;;;12.43;90.17;102104.34;6586437;21;20029;-82
2024/04/13 03:36:17;;;;;;;13.25;10.13;;;;;;;12.36;90.17;102101.25;6586103;21;20051;-81
2024/04/13 03:38:45;;;;;;;17.33;10.40;;;;;;;12.32;90.78;102102.44;6585937;21;20012;-83
2024/04/13 03:41:14;;;;;;;15.90;10.85;;;;;;;12.29;90.44;102100.88;6585402;21;20027;-82
2024/04/13 03:43:44;;;;;;;15.40;10.10;;;;;;;12.28;90.98;102104.47;6585497;21;19996;-81
2024/04/13 03:46:10;;;;;;;15.35;10.88;;;;;;;12.30;91.31;102099.06;6586565;21;20011;-80
2024/04/13 03:48:41;;;;;;;15.68;10.35;;;;;;;12.28;90.88;102103.63;6585483;21;19996;-81
2024/04/13 03:51:08;;;;;;;14.88;10.85;;;;;;;12.24;91.74;102108.31;6586979;21;20007;-81
2024/04/13 03:53:36;;;;;;;13.50;10.32;;;;;;;12.25;91.19;102101.19;6586878;21;20039;-83
2024/04/13 03:56:02;;;;;;;14.20;10.80;;;;;;;12.32;90.67;102099.78;6587016;21;19992;-83
2024/04/13 03:58:31;;;;;;;18.02;10.80;;;;;;;12.24;90.81;102103.00;6593501;21;19988;-83
2024/04/13 04:00:59;;;;;;;14.68;10.63;;;;;;;12.19;91.37;102105.13;6595525;21;20096;-83
2024/04/13 04:03:27;;;;;;;15.45;11.48;;;;;;;12.09;91.88;102110.22;6593050;21;19993;-81
2024/04/13 04:05:54;;;;;;;16.92;11.15;;;;;;;12.08;91.54;102113.00;6601225;21;20000;-81
2024/04/13 04:08:22;;;;;;;15.98;11.00;;;;;;;12.07;91.73;102120.09;6600340;21;20004;-81
2024/04/13 04:10:48;;;;;;;14.57;10.88;;;;;;;12.04;91.54;102115.00;6600909;21;19992;-82
2024/04/13 04:13:16;;;;;;;13.77;10.50;;;;;;;12.09;91.66;102118.19;6588454;21;20014;-83
2024/04/13 04:15:42;;;;;;;16.77;10.52;;;;;;;11.98;91.54;102120.75;6588253;21;20000;-80
2024/04/13 04:18:13;;;;;;;15.43;11.20;;;;;;;11.94;92.29;102124.56;6586802;21;20029;-82
2024/04/13 04:20:41;;;;;;;17.10;11.13;;;;;;;11.95;92.29;102126.25;6586451;21;19993;-81
2024/04/13 04:23:09;;;;;;;14.80;11.35;;;;;;;11.91;92.27;102127.41;6586302;21;20164;-80
2024/04/13 04:25:35;;;;;;;17.13;11.63;;;;;;;11.85;92.85;102128.69;6586581;21;20007;-81
2024/04/13 04:28:05;;;;;;;22.17;12.32;;;;;;;11.92;92.17;102122.97;6584197;21;20001;-79
2024/04/13 04:30:31;;;;;;;18.13;12.00;;;;;;;11.97;92.41;102134.97;6582719;21;19992;-81
2024/04/13 04:33:00;;;;;;;17.98;12.43;;;;;;;11.97;91.97;102129.66;6583686;21;20087;-80
2024/04/13 04:35:31;;;;;;;17.27;12.73;;;;;;;12.01;92.15;102132.94;6583919;21;20031;-81
2024/04/13 04:37:56;;;;;;;19.65;13.30;;;;;;;11.98;92.01;102134.00;6586258;21;19996;-83
2024/04/13 04:40:25;;;;;;;20.25;13.50;;;;;;;11.97;92.45;102131.47;6586099;21;20045;-81
2024/04/13 04:42:50;;;;;;;15.48;12.48;;;;;;;11.88;92.39;102138.25;6586408;21;20011;-83
2024/04/13 04:45:19;;;;;;;18.90;12.85;;;;;;;11.92;92.43;102142.41;6585642;21;20024;-84
2024/04/13 04:47:44;;;;;;;21.60;12.98;;;;;;;11.98;91.72;102139.31;6585898;21;20008;-82
2024/04/13 04:50:13;;;;;;;21.13;13.45;;;;;;;12.08;91.74;102137.72;6583576;21;20000;-82
2024/04/13 04:52:41;;;;;;;19.38;13.20;;;;;;;12.09;91.33;102146.53;6584085;21;20008;-84
2024/04/13 04:55:09;;;;;;;17.25;12.40;;;;;;;12.09;91.34;102138.56;6587478;21;20001;-84
2024/04/13 04:57:35;;;;;;;19.35;12.73;;;;;;;12.07;91.22;102138.69;6586164;21;19992;-84
2024/04/13 05:00:04;;;;;;;15.85;12.90;;;;;;;12.11;91.44;102126.91;6585814;21;19997;-82
2024/04/13 05:02:30;;;;;;;16.35;12.23;;;;;;;12.18;91.02;102139.72;6584678;21;20387;-82
2024/04/13 05:04:58;;;;;;;17.98;12.40;;;;;;;12.24;90.93;102140.16;6585258;21;19993;-80
2024/04/13 05:07:24;;;;;;;20.70;12.48;;;;;;;12.26;90.69;102148.00;6585146;21;20008;-83
2024/04/13 05:09:55;;;;;;;16.17;12.50;;;;;;;12.30;90.72;102139.72;6585622;21;20347;-81
2024/04/13 05:12:21;;;;;;;16.83;12.52;;;;;;;12.27;91.04;102144.38;6585990;21;20070;-80
2024/04/13 05:14:50;;;;;;;14.48;11.80;;;;;;;12.26;91.07;102132.94;6585556;21;20037;-83
2024/04/13 05:17:15;;;;;;;15.35;11.75;;;;;;;12.31;90.67;102124.63;6585966;21;20031;-82
2024/04/13 05:19:44;;;;;;;17.92;12.20;;;;;;;12.37;90.79;102129.53;6584996;21;19996;-81
2024/04/13 05:22:09;;;;;;;18.05;12.90;;;;;;;12.44;90.29;102129.94;6588271;21;20350;-84
2024/04/13 05:24:37;;;;;;;17.60;12.18;;;;;;;12.54;90.25;102125.66;6587524;21;20000;-81
2024/04/13 05:27:06;;;;;;;16.08;12.48;;;;;;;12.70;89.44;102114.78;6586024;21;20434;-82
2024/04/13 05:29:39;;;;;;;16.50;12.73;;;;;;;12.72;89.46;102123.47;6586447;21;20012;-81
2024/04/13 05:32:06;;;;;;;16.77;11.98;;;;;;;12.79;88.85;102124.72;6587027;21;19996;-83
2024/04/13 05:34:34;;;;;;;14.88;11.77;;;;;;;12.87;88.19;102120.56;6586860;21;20007;-81
2024/04/13 05:37:00;;;;;;;17.60;11.95;;;;;;;12.97;88.01;102123.38;6586285;21;19996;-79
2024/04/13 05:39:31;;;;;;;20.48;12.43;;;;;;;13.00;87.51;102123.16;6584660;21;20015;-83
2024/04/13 05:41:57;;;;;;;17.50;11.35;;;;;;;13.17;86.92;102121.94;6585226;21;20011;-81
2024/04/13 05:44:28;;;;;;;16.08;11.07;;;;;;;13.09;87.04;102130.47;6586213;21;20127;-80
2024/04/13 05:46:53;;;;;;;15.57;11.52;;;;;;;13.15;86.86;102129.16;6581769;21;19993;-79
2024/04/13 05:49:23;;;;;;;14.25;11.15;;;;;;;13.22;86.13;102127.78;6582624;21;19997;-80
2024/04/13 05:51:48;;;;;;;18.17;11.13;;;;;;;13.25;86.19;102130.19;6581216;21;20012;-78
2024/04/13 05:54:16;;;;;;;16.65;11.45;;;;;;;13.18;86.38;102125.44;6583637;21;19996;-83
2024/04/13 05:56:42;;;;;;;16.75;11.57;;;;;;;13.25;85.99;102132.00;6584126;21;19992;-83
2024/04/13 05:59:11;;;;;;;16.50;11.68;;;;;;;13.30;86.55;102129.84;6585281;21;20072;-82
2024/04/13 06:01:41;;;;;;;19.00;11.13;;;;;;;14.06;83.41;102120.44;6581290;21;20014;-79
2024/04/13 06:04:10;;;;;;;15.45;11.20;;;;;;;15.42;77.96;102118.25;6581414;21;20032;-81
2024/04/13 06:06:36;;;;;;;13.95;9.38;;;;;;;16.49;72.60;102116.16;6588661;21;19992;-83
2024/04/13 06:09:05;;;;;;;12.27;9.15;;;;;;;16.26;73.14;102125.38;6593139;21;19992;-79
2024/04/13 06:11:31;;;;;;;15.73;9.60;;;;;;;16.59;72.06;102119.69;6592207;21;20027;-83
2024/04/13 06:13:59;;;;;;;14.82;9.05;;;;;;;17.08;70.38;102117.97;6594182;21;19996;-81
2024/04/13 06:16:25;;;;;;;13.18;9.20;;;;;;;17.38;69.24;102114.31;6589530;21;19996;-82
2024/04/13 06:18:56;;;;;;;12.57;9.98;;;;;;;17.01;70.94;102116.00;6587678;21;20000;-81
2024/04/13 06:21:22;;;;;;;13.95;9.68;;;;;;;17.40;69.74;102117.69;6587255;21;19996;-81
2024/04/13 06:23:50;;;;;;;13.65;9.82;;;;;;;17.25;69.99;102112.91;6588228;21;20296;-82
2024/04/13 06:26:16;;;;;;;13.05;9.32;;;;;;;17.48;69.07;102106.28;6589813;21;20427;-83
2024/04/13 06:28:44;;;;;;;15.30;9.20;;;;;;;17.80;68.68;102108.63;6583908;21;20015;-79
2024/04/13 06:31:10;;;;;;;16.40;10.27;;;;;;;18.06;67.81;102098.13;6583509;21;20311;-82
2024/04/13 06:33:38;;;;;;;14.45;10.60;;;;;;;18.11;66.85;102109.22;6582718;21;20083;-78
2024/04/13 06:36:09;;;;;;;14.30;9.85;;;;;;;17.86;68.39;102107.22;6583309;21;19996;-80
2024/04/13 06:38:38;;;;;;;13.85;9.98;;;;;;;17.47;69.33;102107.25;6581198;21;20012;-80
2024/04/13 06:41:04;;;;;;;15.20;10.20;;;;;;;17.64;69.43;102095.81;6580829;21;19997;-81
2024/04/13 06:43:32;;;;;;;14.52;10.07;;;;;;;18.08;68.15;102093.47;6577329;21;19997;-80
2024/04/13 06:45:58;;;;;;;13.63;10.02;;;;;;;18.19;67.26;102092.41;6580968;21;19997;-79
2024/04/13 06:48:26;;;;;;;14.70;9.68;;;;;;;18.55;65.81;102079.94;6583272;21;20010;-80
2024/04/13 06:50:52;;;;;;;15.20;10.10;;;;;;;18.68;64.82;102080.44;6584416;21;20015;-78
2024/04/13 06:53:25;;;;;;;14.27;9.30;;;;;;;18.81;64.82;102080.09;6583399;21;20000;-81
2024/04/13 06:55:50;;;;;;;15.13;10.45;;;;;;;18.69;65.22;102071.41;6584110;21;20008;-81
2024/04/13 06:58:23;;;;;;;13.63;9.60;;;;;;;18.87;65.29;102076.78;6583856;21;20015;-82
2024/04/13 07:00:54;;;;;;;13.18;9.25;;;;;;;18.71;65.44;102073.09;6585138;21;20359;-83
2024/04/13 07:03:22;;;;;;;17.10;10.27;;;;;;;19.01;63.73;102069.19;6581949;21;20012;-81
2024/04/13 07:05:54;;;;;;;12.48;9.02;;;;;;;19.34;62.73;102065.78;6584721;21;20400;-80
2024/04/13 07:08:28;;;;;;;14.18;9.30;;;;;;;19.53;63.08;102072.81;6585864;21;19996;-81
2024/04/13 07:10:55;;;;;;;12.95;9.23;;;;;;;19.65;61.84;102081.47;6586103;21;19997;-79
2024/04/13 07:13:23;;;;;;;14.73;9.77;;;;;;;19.57;61.72;102079.53;6589213;21;19993;-82
2024/04/13 07:15:49;;;;;;;14.60;9.40;;;;;;;19.34;63.13;102075.69;6589416;21;19996;-82
2024/04/13 07:18:18;;;;;;;12.15;9.20;;;;;;;19.19;62.84;102076.22;6583642;21;19996;-80
2024/04/13 07:20:45;;;;;;;14.45;9.15;;;;;;;19.24;63.15;102075.75;6583664;21;20011;-81
2024/04/13 07:23:15;;;;;;;15.05;10.00;;;;;;;19.61;63.62;102072.91;6585146;21;20011;-81
2024/04/13 07:25:43;;;;;;;15.13;9.63;;;;;;;20.32;60.80;102066.34;6583985;21;19993;-81
2024/04/13 07:28:12;;;;;;;13.15;9.35;;;;;;;20.81;58.58;102062.97;6582208;21;20104;-81
2024/04/13 07:30:38;;;;;;;16.98;9.35;;;;;;;21.31;56.95;102064.66;6579502;21;20000;-80
2024/04/13 07:33:06;;;;;;;11.88;8.98;;;;;;;21.78;56.23;102069.31;6583289;21;20094;-78
2024/04/13 07:35:32;;;;;;;12.43;9.60;;;;;;;21.50;56.04;102075.09;6583588;21;20016;-80
2024/04/13 07:38:00;;;;;;;12.27;9.77;;;;;;;21.59;56.69;102066.00;6586154;21;20110;-78
2024/04/13 07:40:26;;;;;;;14.45;9.70;;;;;;;21.76;56.50;102068.66;6582564;21;20031;-82
2024/04/13 07:42:57;;;;;;;12.30;8.88;;;;;;;21.57;57.01;102068.03;6583047;21;20001;-80
2024/04/13 07:45:22;;;;;;;12.43;7.93;;;;;;;21.19;57.37;102064.16;6581787;21;19996;-81
2024/04/13 07:47:51;;;;;;;12.73;8.50;;;;;;;21.61;56.90;102065.81;6581806;21;19997;-82
2024/04/13 07:50:17;;;;;;;11.00;7.53;;;;;;;21.81;56.38;102064.44;6581486;21;20016;-80
2024/04/13 07:52:45;;;;;;;9.07;7.40;;;;;;;22.07;55.24;102061.47;6581825;21;19993;-80
2024/04/13 07:55:11;;;;;;;11.02;7.53;;;;;;;22.47;54.26;102048.84;6582437;21;20293;-81
2024/04/13 07:57:39;;;;;;;14.32;8.50;;;;;;;22.14;54.55;102057.06;6581959;21;20007;-80
2024/04/13 08:00:09;;;;;;;14.05;7.82;;;;;;;22.26;54.88;102057.53;6580768;21;20000;-80
2024/04/13 08:02:38;;;;;;;13.20;8.25;;;;;;;21.51;56.69;102049.84;6582363;21;20013;-80
2024/04/13 08:05:06;;;;;;;10.70;7.70;;;;;;;22.15;55.13;102045.28;6582542;21;20307;-80
2024/04/13 08:07:34;;;;;;;12.35;8.15;;;;;;;21.76;55.53;102049.78;6589230;21;20005;-80
2024/04/13 08:09:59;;;;;;;10.18;8.85;;;;;;;22.23;54.73;102047.09;6596752;21;20011;-81
2024/04/13 08:12:28;;;;;;;10.55;7.00;;;;;;;21.95;54.96;102044.00;6596107;21;20004;-79
2024/04/13 08:14:53;;;;;;;14.15;7.53;;;;;;;22.03;55.23;102038.56;6597523;21;19993;-83
2024/04/13 08:17:26;;;;;;;13.38;8.02;;;;;;;22.62;53.96;102040.81;6597920;21;20012;-81
2024/04/13 08:19:52;;;;;;;12.13;7.80;;;;;;;22.55;53.67;102037.16;6591151;21;19996;-82
2024/04/13 08:22:20;;;;;;;11.93;8.18;;;;;;;22.54;53.50;102032.75;6591531;21;19993;-80
2024/04/13 08:24:46;;;;;;;11.27;7.70;;;;;;;22.36;54.29;102046.53;6591853;21;20000;-81
2024/04/13 08:27:14;;;;;;;14.93;7.45;;;;;;;22.37;55.14;102040.13;6591152;21;20572;-81
2024/04/13 08:29:40;;;;;;;9.48;7.63;;;;;;;22.53;53.75;102040.00;6587122;21;19992;-83
2024/04/13 08:32:09;;;;;;;8.93;7.30;;;;;;;22.89;53.66;102036.72;6584195;21;20005;-83
2024/04/13 08:34:37;;;;;;;9.70;8.02;;;;;;;23.00;53.35;102032.81;6584000;21;19996;-83
2024/04/13 08:37:06;;;;;;;8.68;7.57;;;;;;;22.45;54.83;102042.75;6582327;21;20157;-82
2024/04/13 08:39:35;;;;;;;12.73;7.35;;;;;;;22.83;54.20;102041.00;6583088;21;20158;-81
2024/04/13 08:42:09;;;;;;;10.57;7.15;;;;;;;22.71;53.12;102032.47;6582641;21;20000;-82
2024/04/13 08:44:35;;;;;;;13.38;7.43;;;;;;;23.20;52.80;102037.50;6583206;21;20439;-80
2024/04/13 08:47:03;;;;;;;10.15;6.97;;;;;;;23.26;53.06;102027.84;6587131;21;19996;-80
2024/04/13 08:49:30;;;;;;;8.07;5.93;;;;;;;23.57;51.20;102019.56;6595657;21;20015;-83
2024/04/13 08:52:02;;;;;;;9.27;5.90;;;;;;;23.69;51.10;102019.97;6583444;21;20033;-80
2024/04/13 08:54:30;;;;;;;10.60;6.47;;;;;;;23.79;50.94;102025.09;6583748;21;19995;-82
2024/04/13 08:56:59;;;;;;;9.55;6.05;;;;;;;24.14;50.52;102024.28;6583256;21;20082;-81
2024/04/13 08:59:27;;;;;;;10.13;6.40;;;;;;;24.61;48.79;102020.28;6583851;21;19996;-81
2024/04/13 09:01:58;;;;;;;9.73;6.60;;;;;;;24.40;48.85;102022.97;6583092;21;19997;-81
2024/04/13 09:04:23;;;;;;;12.30;6.68;;;;;;;23.83;49.94;102021.81;6582152;21;19997;-79
2024/04/13 09:06:52;;;;;;;10.23;6.35;;;;;;;23.89;50.20;102029.19;6582262;21;19996;-81
2024/04/13 09:09:20;;;;;;;9.77;5.78;;;;;;;23.97;49.77;102022.84;6582282;21;20004;-79
2024/04/13 09:11:49;;;;;;;8.68;6.10;;;;;;;23.85;50.26;102013.53;6582038;21;20008;-82
2024/04/13 09:14:14;;;;;;;7.85;5.70;;;;;;;24.47;49.52;102004.94;6582502;21;19996;-81
2024/04/13 09:16:45;;;;;;;8.80;5.32;;;;;;;24.34;48.74;102007.47;6582814;21;20506;-82
2024/04/13 09:19:11;;;;;;;9.88;5.50;;;;;;;24.17;49.00;102007.69;6582277;21;19997;-80
2024/04/13 09:21:43;;;;;;;13.77;5.85;;;;;;;24.50;48.48;102001.00;6584459;21;20015;-81
2024/04/13 09:24:10;;;;;;;11.27;6.10;;;;;;;23.84;50.92;102014.53;6585405;21;20001;-81
2024/04/13 09:26:47;;;;;;;7.72;5.07;;;;;;;23.94;49.97;102012.41;6583645;21;20305;-80
2024/04/13 09:29:23;;;;;;;7.00;5.30;;;;;;;24.14;48.65;102007.22;6582417;21;20007;-82
2024/04/13 09:31:52;;;;;;;11.30;5.22;;;;;;;24.10;48.06;102001.34;6585420;21;20000;-82
2024/04/13 09:34:18;;;;;;;8.68;5.43;;;;;;;23.81;49.99;101996.03;6583860;21;20011;-79
2024/04/13 09:36:46;;;;;;;7.68;5.13;;;;;;;24.51;48.61;101987.28;6585725;21;19988;-79
2024/04/13 09:39:19;;;;;;;12.70;5.80;;;;;;;24.29;48.18;101978.28;6585837;21;19996;-79
2024/04/13 09:41:50;;;;;;;8.55;5.32;;;;;;;24.29;48.51;101978.28;6587774;21;20105;-81
2024/04/13 09:44:24;;;;;;;8.70;5.80;;;;;;;24.31;48.88;101973.50;6589633;21;20007;-82
2024/04/13 09:46:52;;;;;;;12.80;5.78;;;;;;;24.34;48.86;101969.59;6588574;21;20036;-79
2024/04/13 09:49:18;;;;;;;7.88;5.47;;;;;;;23.76;50.00;101974.13;6582909;21;20011;-79
2024/04/13 09:51:48;;;;;;;9.15;6.13;;;;;;;24.11;50.11;101967.03;6584999;21;19997;-82
2024/04/13 09:54:15;;;;;;;10.02;5.10;;;;;;;24.02;50.26;101968.16;6584661;21;20432;-82
2024/04/13 09:56:46;;;;;;;11.77;5.85;;;;;;;24.16;50.71;101960.03;6584978;21;20012;-81
2024/04/13 09:59:17;;;;;;;6.18;4.88;;;;;;;24.20;48.57;101964.03;6586163;21;20011;-80
2024/04/13 10:01:46;;;;;;;9.10;5.57;;;;;;;24.35;47.85;101955.84;6586297;21;20070;-82
2024/04/13 10:04:11;;;;;;;8.35;5.22;;;;;;;24.12;48.14;101950.63;6584514;21;19996;-80
2024/04/13 10:06:40;;;;;;;8.70;5.57;;;;;;;24.03;48.43;101951.78;6584850;21;20081;-81
2024/04/13 10:09:11;;;;;;;7.15;5.50;;;;;;;24.25;48.35;101946.41;6585588;21;20004;-79
2024/04/13 10:11:43;;;;;;;9.07;5.40;;;;;;;24.19;47.74;101951.53;6583559;21;20033;-81
2024/04/13 10:14:10;;;;;;;9.25;5.38;;;;;;;24.20;47.54;101941.56;6584342;21;20010;-81
2024/04/13 10:16:43;;;;;;;8.25;5.20;;;;;;;24.18;48.19;101954.44;6584190;21;20000;-81
2024/04/13 10:19:09;;;;;;;10.90;5.97;;;;;;;23.98;48.25;101948.81;6584128;21;19992;-79
2024/04/13 10:21:38;;;;;;;7.28;4.65;;;;;;;23.95;48.59;101943.78;6585534;21;20052;-79
2024/04/13 10:24:04;;;;;;;8.65;4.65;;;;;;;24.11;47.72;101948.09;6586628;21;19996;-79
2024/04/13 10:26:33;;;;;;;10.50;5.20;;;;;;;24.28;48.52;101932.47;6584510;21;19996;-80
2024/04/13 10:28:59;;;;;;;9.90;5.35;;;;;;;24.16;47.91;101919.47;6589210;21;20044;-80
2024/04/13 10:31:29;;;;;;;13.20;5.40;;;;;;;24.03;47.24;101919.31;6593904;21;20085;-81
2024/04/13 10:33:58;;;;;;;6.65;4.22;;;;;;;23.92;49.15;101914.38;6594858;21;20078;-82
2024/04/13 10:36:30;;;;;;;5.90;4.53;;;;;;;24.68;48.45;101912.88;6596566;21;19997;-80
2024/04/13 10:38:57;;;;;;;8.15;4.43;;;;;;;24.63;46.58;101909.91;6588588;21;20136;-81
2024/04/13 10:41:32;;;;;;;9.68;4.93;;;;;;;24.77;45.70;101902.72;6586521;21;20000;-81
2024/04/13 10:43:59;;;;;;;6.25;4.80;;;;;;;24.58;45.60;101896.13;6583254;21;20012;-80
2024/04/13 10:46:28;;;;;;;6.32;4.47;;;;;;;24.40;46.60;101887.66;6583015;21;19996;-82
2024/04/13 10:48:54;;;;;;;9.98;5.00;;;;;;;24.49;45.05;101896.47;6582281;21;19996;-81
2024/04/13 10:51:25;;;;;;;7.53;4.55;;;;;;;24.51;45.61;101881.72;6582954;21;19996;-82
2024/04/13 10:53:50;;;;;;;8.93;4.35;;;;;;;24.48;45.86;101884.81;6583500;21;20000;-82
2024/04/13 10:56:19;;;;;;;6.70;4.57;;;;;;;24.42;45.28;101874.75;6582258;21;20012;-81
2024/04/13 10:58:45;;;;;;;8.88;4.10;;;;;;;24.51;45.09;101878.16;6582047;21;20004;-79
2024/04/13 11:01:13;;;;;;;7.35;4.43;;;;;;;24.50;45.90;101871.91;6582560;21;20079;-82
2024/04/13 11:03:39;;;;;;;5.47;4.38;;;;;;;24.62;45.84;101867.66;6583020;21;19996;-82
2024/04/13 11:06:11;;;;;;;7.72;4.53;;;;;;;24.65;46.74;101863.72;6582058;21;20314;-81
2024/04/13 11:08:39;;;;;;;10.18;4.68;;;;;;;24.49;47.08;101859.41;6583009;21;20004;-79
2024/04/13 11:11:08;;;;;;;7.85;4.68;;;;;;;24.62;47.42;101850.56;6583422;21;20014;-81
2024/04/13 11:13:33;;;;;;;8.90;5.05;;;;;;;24.50;45.80;101850.25;6583907;21;20339;-79
2024/04/13 11:16:03;;;;;;;6.75;4.68;;;;;;;24.56;45.71;101837.81;6582013;21;20012;-82
2024/04/13 11:18:29;;;;;;;8.93;4.80;;;;;;;24.52;47.14;101834.66;6582505;21;20014;-81
2024/04/13 11:21:04;;;;;;;7.20;4.78;;;;;;;24.44;46.80;101824.00;6582929;21;20000;-81